sensor_id;sensor_type;location;lat;lon;timestamp;temperature;humidity
76168;DHT22;64927;48.214;16.378;2023-10-08T00:02:26;21.50;33.30
76168;DHT22;64927;48.214;16.378;2023-10-08T00:04:54;21.50;33.20
76168;DHT22;64927;48.214;16.378;2023-10-08T00:07:21;21.50;33.50
76168;DHT22;64927;48.214;16.378;2023-10-08T00:09:53;21.50;33.50
76168;DHT22;64927;48.214;16.378;2023-10-08T00:12:19;21.50;33.40
76168;DHT22;64927;48.214;16.378;2023-10-08T00:14:45;21.50;33.50
76168;DHT22;64927;48.214;16.378;2023-10-08T00:17:17;21.40;33.50
76168;DHT22;64927;48.214;16.378;2023-10-08T00:19:43;21.40;33.70
76168;DHT22;64927;48.214;16.378;2023-10-08T00:22:11;21.40;33.70
76168;DHT22;64927;48.214;16.378;2023-10-08T00:24:39;21.40;33.80
76168;DHT22;64927;48.214;16.378;2023-10-08T00:27:08;21.50;33.80
76168;DHT22;64927;48.214;16.378;2023-10-08T00:29:33;21.40;33.70
76168;DHT22;64927;48.214;16.378;2023-10-08T00:31:59;21.50;33.90
76168;DHT22;64927;48.214;16.378;2023-10-08T00:34:28;21.50;34.10
76168;DHT22;64927;48.214;16.378;2023-10-08T00:36:54;21.50;33.80
76168;DHT22;64927;48.214;16.378;2023-10-08T00:39:20;21.60;33.70
76168;DHT22;64927;48.214;16.378;2023-10-08T00:41:50;21.70;33.50
76168;DHT22;64927;48.214;16.378;2023-10-08T00:44:16;21.70;33.40
76168;DHT22;64927;48.214;16.378;2023-10-08T00:46:51;21.70;33.30
76168;DHT22;64927;48.214;16.378;2023-10-08T00:49:22;21.80;33.40
76168;DHT22;64927;48.214;16.378;2023-10-08T00:52:12;21.70;33.40
76168;DHT22;64927;48.214;16.378;2023-10-08T00:54:41;21.80;33.10
76168;DHT22;64927;48.214;16.378;2023-10-08T00:57:33;21.80;33.10
76168;DHT22;64927;48.214;16.378;2023-10-08T01:00:04;21.80;32.90
76168;DHT22;64927;48.214;16.378;2023-10-08T01:02:40;21.80;32.80
76168;DHT22;64927;48.214;16.378;2023-10-08T01:05:15;21.90;32.80
76168;DHT22;64927;48.214;16.378;2023-10-08T01:07:49;21.90;32.70
76168;DHT22;64927;48.214;16.378;2023-10-08T01:10:17;21.90;32.90
76168;DHT22;64927;48.214;16.378;2023-10-08T01:12:50;21.90;32.70
76168;DHT22;64927;48.214;16.378;2023-10-08T01:15:27;21.90;32.80
76168;DHT22;64927;48.214;16.378;2023-10-08T01:17:59;21.90;32.80
76168;DHT22;64927;48.214;16.378;2023-10-08T01:20:27;21.90;33.20
76168;DHT22;64927;48.214;16.378;2023-10-08T01:23:10;21.90;32.90
76168;DHT22;64927;48.214;16.378;2023-10-08T01:25:42;21.80;33.10
76168;DHT22;64927;48.214;16.378;2023-10-08T01:28:16;21.80;33.20
76168;DHT22;64927;48.214;16.378;2023-10-08T01:30:55;21.80;33.20
76168;DHT22;64927;48.214;16.378;2023-10-08T01:33:22;21.80;33.20
76168;DHT22;64927;48.214;16.378;2023-10-08T01:35:52;21.70;33.10
76168;DHT22;64927;48.214;16.378;2023-10-08T01:38:17;21.80;33.40
76168;DHT22;64927;48.214;16.378;2023-10-08T01:40:51;21.80;33.20
76168;DHT22;64927;48.214;16.378;2023-10-08T01:43:17;21.80;33.30
76168;DHT22;64927;48.214;16.378;2023-10-08T01:45:43;21.80;33.40
76168;DHT22;64927;48.214;16.378;2023-10-08T01:48:14;21.80;33.20
76168;DHT22;64927;48.214;16.378;2023-10-08T01:50:40;21.80;34.50
76168;DHT22;64927;48.214;16.378;2023-10-08T01:53:06;21.80;33.40
76168;DHT22;64927;48.214;16.378;2023-10-08T01:55:35;21.80;33.10
76168;DHT22;64927;48.214;16.378;2023-10-08T01:58:15;21.80;33.30
76168;DHT22;64927;48.214;16.378;2023-10-08T02:00:45;21.80;33.40
76168;DHT22;64927;48.214;16.378;2023-10-08T02:03:15;21.80;33.20
76168;DHT22;64927;48.214;16.378;2023-10-08T02:05:43;21.80;33.30
76168;DHT22;64927;48.214;16.378;2023-10-08T02:08:11;21.70;33.00
76168;DHT22;64927;48.214;16.378;2023-10-08T02:10:40;21.80;33.20
76168;DHT22;64927;48.214;16.378;2023-10-08T02:13:10;21.70;33.20
76168;DHT22;64927;48.214;16.378;2023-10-08T02:15:36;21.70;33.30
76168;DHT22;64927;48.214;16.378;2023-10-08T02:18:03;21.60;33.10
76168;DHT22;64927;48.214;16.378;2023-10-08T02:20:31;21.60;33.20
76168;DHT22;64927;48.214;16.378;2023-10-08T02:22:58;21.60;33.20
76168;DHT22;64927;48.214;16.378;2023-10-08T02:25:25;21.60;33.40
76168;DHT22;64927;48.214;16.378;2023-10-08T02:27:51;21.60;33.40
76168;DHT22;64927;48.214;16.378;2023-10-08T02:30:17;21.60;33.60
76168;DHT22;64927;48.214;16.378;2023-10-08T02:32:43;21.60;33.50
76168;DHT22;64927;48.214;16.378;2023-10-08T02:35:10;21.50;33.70
76168;DHT22;64927;48.214;16.378;2023-10-08T02:37:37;21.50;33.80
76168;DHT22;64927;48.214;16.378;2023-10-08T02:40:09;21.50;33.70
76168;DHT22;64927;48.214;16.378;2023-10-08T02:42:54;21.50;34.00
76168;DHT22;64927;48.214;16.378;2023-10-08T02:45:27;21.40;34.00
76168;DHT22;64927;48.214;16.378;2023-10-08T02:47:56;21.40;34.10
76168;DHT22;64927;48.214;16.378;2023-10-08T02:50:24;21.40;34.30
76168;DHT22;64927;48.214;16.378;2023-10-08T02:52:54;21.40;34.30
76168;DHT22;64927;48.214;16.378;2023-10-08T02:55:28;21.40;34.70
76168;DHT22;64927;48.214;16.378;2023-10-08T02:58:00;21.40;34.90
76168;DHT22;64927;48.214;16.378;2023-10-08T03:00:30;21.30;34.80
76168;DHT22;64927;48.214;16.378;2023-10-08T03:02:59;21.30;35.20
76168;DHT22;64927;48.214;16.378;2023-10-08T03:05:27;21.40;35.20
76168;DHT22;64927;48.214;16.378;2023-10-08T03:08:02;21.40;35.30
76168;DHT22;64927;48.214;16.378;2023-10-08T03:10:27;21.30;35.40
76168;DHT22;64927;48.214;16.378;2023-10-08T03:12:59;21.30;35.40
76168;DHT22;64927;48.214;16.378;2023-10-08T03:15:35;21.30;35.60
76168;DHT22;64927;48.214;16.378;2023-10-08T03:18:05;21.30;35.70
76168;DHT22;64927;48.214;16.378;2023-10-08T03:20:38;21.30;35.70
76168;DHT22;64927;48.214;16.378;2023-10-08T03:23:11;21.20;35.80
76168;DHT22;64927;48.214;16.378;2023-10-08T03:25:41;21.30;36.00
76168;DHT22;64927;48.214;16.378;2023-10-08T03:28:10;21.30;36.00
76168;DHT22;64927;48.214;16.378;2023-10-08T03:30:39;21.20;36.10
76168;DHT22;64927;48.214;16.378;2023-10-08T03:33:17;21.20;36.30
76168;DHT22;64927;48.214;16.378;2023-10-08T03:35:51;21.20;36.20
76168;DHT22;64927;48.214;16.378;2023-10-08T03:38:20;21.20;36.40
76168;DHT22;64927;48.214;16.378;2023-10-08T03:41:10;21.20;36.60
76168;DHT22;64927;48.214;16.378;2023-10-08T03:43:42;21.20;36.60
76168;DHT22;64927;48.214;16.378;2023-10-08T03:46:30;21.20;36.70
76168;DHT22;64927;48.214;16.378;2023-10-08T03:48:58;21.20;36.90
76168;DHT22;64927;48.214;16.378;2023-10-08T03:51:30;21.20;36.90
76168;DHT22;64927;48.214;16.378;2023-10-08T03:54:07;21.10;36.90
76168;DHT22;64927;48.214;16.378;2023-10-08T03:56:35;21.10;37.20
76168;DHT22;64927;48.214;16.378;2023-10-08T03:59:07;21.10;37.10
76168;DHT22;64927;48.214;16.378;2023-10-08T04:01:39;21.00;38.20
76168;DHT22;64927;48.214;16.378;2023-10-08T04:04:08;21.00;37.40
76168;DHT22;64927;48.214;16.378;2023-10-08T04:06:40;21.00;37.50
76168;DHT22;64927;48.214;16.378;2023-10-08T04:09:15;21.00;37.40
76168;DHT22;64927;48.214;16.378;2023-10-08T04:11:50;21.00;37.30
76168;DHT22;64927;48.214;16.378;2023-10-08T04:14:28;21.00;37.60
76168;DHT22;64927;48.214;16.378;2023-10-08T04:16:55;21.00;37.40
76168;DHT22;64927;48.214;16.378;2023-10-08T04:19:22;21.00;37.30
76168;DHT22;64927;48.214;16.378;2023-10-08T04:21:53;21.00;37.50
76168;DHT22;64927;48.214;16.378;2023-10-08T04:24:26;21.00;37.50
76168;DHT22;64927;48.214;16.378;2023-10-08T04:27:00;21.00;37.40
76168;DHT22;64927;48.214;16.378;2023-10-08T04:29:31;21.00;37.50
76168;DHT22;64927;48.214;16.378;2023-10-08T04:32:00;21.00;37.50
76168;DHT22;64927;48.214;16.378;2023-10-08T04:34:37;20.90;37.70
76168;DHT22;64927;48.214;16.378;2023-10-08T04:37:03;20.90;37.80
76168;DHT22;64927;48.214;16.378;2023-10-08T04:39:39;21.00;37.80
76168;DHT22;64927;48.214;16.378;2023-10-08T04:42:08;20.90;37.90
76168;DHT22;64927;48.214;16.378;2023-10-08T04:44:38;20.90;38.00
76168;DHT22;64927;48.214;16.378;2023-10-08T04:47:11;20.90;38.10
76168;DHT22;64927;48.214;16.378;2023-10-08T04:49:56;20.90;38.30
76168;DHT22;64927;48.214;16.378;2023-10-08T04:52:22;20.90;38.30
76168;DHT22;64927;48.214;16.378;2023-10-08T04:54:50;20.80;38.40
76168;DHT22;64927;48.214;16.378;2023-10-08T04:57:17;20.80;38.50
76168;DHT22;64927;48.214;16.378;2023-10-08T04:59:44;20.90;38.50
76168;DHT22;64927;48.214;16.378;2023-10-08T05:02:14;20.90;38.50
76168;DHT22;64927;48.214;16.378;2023-10-08T05:04:50;20.90;38.60
76168;DHT22;64927;48.214;16.378;2023-10-08T05:07:33;20.90;39.00
76168;DHT22;64927;48.214;16.378;2023-10-08T05:10:24;21.00;38.80
76168;DHT22;64927;48.214;16.378;2023-10-08T05:12:51;20.90;38.90
76168;DHT22;64927;48.214;16.378;2023-10-08T05:15:27;21.00;39.00
76168;DHT22;64927;48.214;16.378;2023-10-08T05:17:59;20.90;39.20
76168;DHT22;64927;48.214;16.378;2023-10-08T05:20:39;20.90;39.30
76168;DHT22;64927;48.214;16.378;2023-10-08T05:23:14;20.90;39.30
76168;DHT22;64927;48.214;16.378;2023-10-08T05:26:08;20.90;39.50
76168;DHT22;64927;48.214;16.378;2023-10-08T05:28:38;20.90;39.50
76168;DHT22;64927;48.214;16.378;2023-10-08T05:31:23;20.90;39.90
76168;DHT22;64927;48.214;16.378;2023-10-08T05:34:09;21.00;39.70
76168;DHT22;64927;48.214;16.378;2023-10-08T05:36:46;21.00;39.50
76168;DHT22;64927;48.214;16.378;2023-10-08T05:39:30;21.00;39.70
76168;DHT22;64927;48.214;16.378;2023-10-08T05:42:09;21.00;39.60
76168;DHT22;64927;48.214;16.378;2023-10-08T05:44:57;21.00;39.70
76168;DHT22;64927;48.214;16.378;2023-10-08T05:47:45;21.00;39.60
76168;DHT22;64927;48.214;16.378;2023-10-08T05:50:31;21.00;39.80
76168;DHT22;64927;48.214;16.378;2023-10-08T05:53:20;21.00;39.80
76168;DHT22;64927;48.214;16.378;2023-10-08T05:56:06;21.00;39.70
76168;DHT22;64927;48.214;16.378;2023-10-08T05:58:51;21.00;40.00
76168;DHT22;64927;48.214;16.378;2023-10-08T06:01:37;21.10;39.80
76168;DHT22;64927;48.214;16.378;2023-10-08T06:04:05;21.10;40.20
76168;DHT22;64927;48.214;16.378;2023-10-08T06:06:56;21.00;40.10
76168;DHT22;64927;48.214;16.378;2023-10-08T06:09:38;21.10;39.90
76168;DHT22;64927;48.214;16.378;2023-10-08T06:12:06;21.10;40.00
76168;DHT22;64927;48.214;16.378;2023-10-08T06:14:45;21.10;40.00
76168;DHT22;64927;48.214;16.378;2023-10-08T06:17:29;21.20;40.00
76168;DHT22;64927;48.214;16.378;2023-10-08T06:20:20;21.10;40.00
76168;DHT22;64927;48.214;16.378;2023-10-08T06:22:51;21.20;40.40
76168;DHT22;64927;48.214;16.378;2023-10-08T06:25:18;21.20;40.20
76168;DHT22;64927;48.214;16.378;2023-10-08T06:27:49;21.30;40.10
76168;DHT22;64927;48.214;16.378;2023-10-08T06:30:19;21.30;40.10
76168;DHT22;64927;48.214;16.378;2023-10-08T06:32:45;21.40;39.70
76168;DHT22;64927;48.214;16.378;2023-10-08T06:35:11;21.40;39.60
76168;DHT22;64927;48.214;16.378;2023-10-08T06:37:44;21.50;39.60
76168;DHT22;64927;48.214;16.378;2023-10-08T06:40:13;21.60;39.70
76168;DHT22;64927;48.214;16.378;2023-10-08T06:43:01;21.70;39.30
76168;DHT22;64927;48.214;16.378;2023-10-08T06:45:41;21.80;40.10
76168;DHT22;64927;48.214;16.378;2023-10-08T06:48:08;21.70;39.10
76168;DHT22;64927;48.214;16.378;2023-10-08T06:50:34;21.70;39.00
76168;DHT22;64927;48.214;16.378;2023-10-08T06:53:02;21.70;39.20
76168;DHT22;64927;48.214;16.378;2023-10-08T06:55:40;21.70;39.40
76168;DHT22;64927;48.214;16.378;2023-10-08T06:58:06;21.90;39.50
76168;DHT22;64927;48.214;16.378;2023-10-08T07:00:34;21.90;38.80
76168;DHT22;64927;48.214;16.378;2023-10-08T07:03:27;22.00;39.70
76168;DHT22;64927;48.214;16.378;2023-10-08T07:05:54;22.00;39.00
76168;DHT22;64927;48.214;16.378;2023-10-08T07:08:23;22.10;38.50
76168;DHT22;64927;48.214;16.378;2023-10-08T07:10:53;22.00;38.80
76168;DHT22;64927;48.214;16.378;2023-10-08T07:13:19;21.90;39.00
76168;DHT22;64927;48.214;16.378;2023-10-08T07:15:49;22.00;39.10
76168;DHT22;64927;48.214;16.378;2023-10-08T07:18:17;22.20;38.80
76168;DHT22;64927;48.214;16.378;2023-10-08T07:20:54;22.30;38.70
76168;DHT22;64927;48.214;16.378;2023-10-08T07:23:23;22.40;38.30
76168;DHT22;64927;48.214;16.378;2023-10-08T07:25:56;22.60;38.10
76168;DHT22;64927;48.214;16.378;2023-10-08T07:28:24;22.70;37.90
76168;DHT22;64927;48.214;16.378;2023-10-08T07:30:51;22.80;38.00
76168;DHT22;64927;48.214;16.378;2023-10-08T07:33:19;22.90;37.70
76168;DHT22;64927;48.214;16.378;2023-10-08T07:35:48;22.90;37.50
76168;DHT22;64927;48.214;16.378;2023-10-08T07:38:20;23.00;37.40
76168;DHT22;64927;48.214;16.378;2023-10-08T07:40:47;23.10;37.30
76168;DHT22;64927;48.214;16.378;2023-10-08T07:43:15;23.20;37.00
76168;DHT22;64927;48.214;16.378;2023-10-08T07:45:46;23.20;37.10
76168;DHT22;64927;48.214;16.378;2023-10-08T07:48:11;23.30;37.00
76168;DHT22;64927;48.214;16.378;2023-10-08T07:50:45;23.30;37.40
76168;DHT22;64927;48.214;16.378;2023-10-08T07:53:14;23.30;37.20
76168;DHT22;64927;48.214;16.378;2023-10-08T07:55:44;23.40;37.00
76168;DHT22;64927;48.214;16.378;2023-10-08T07:58:14;23.30;37.00
76168;DHT22;64927;48.214;16.378;2023-10-08T08:00:43;23.30;37.20
76168;DHT22;64927;48.214;16.378;2023-10-08T08:03:20;23.00;38.20
76168;DHT22;64927;48.214;16.378;2023-10-08T08:05:46;22.90;37.70
76168;DHT22;64927;48.214;16.378;2023-10-08T08:08:13;22.80;37.90
76168;DHT22;64927;48.214;16.378;2023-10-08T08:10:45;22.70;38.10
76168;DHT22;64927;48.214;16.378;2023-10-08T08:13:13;22.60;38.50
76168;DHT22;64927;48.214;16.378;2023-10-08T08:15:46;22.70;38.70
76168;DHT22;64927;48.214;16.378;2023-10-08T08:18:16;22.60;38.50
76168;DHT22;64927;48.214;16.378;2023-10-08T08:20:48;22.60;39.00
76168;DHT22;64927;48.214;16.378;2023-10-08T08:23:13;22.40;39.80
76168;DHT22;64927;48.214;16.378;2023-10-08T08:25:41;22.50;39.60
76168;DHT22;64927;48.214;16.378;2023-10-08T08:28:25;22.50;39.70
76168;DHT22;64927;48.214;16.378;2023-10-08T08:30:54;22.50;40.10
76168;DHT22;64927;48.214;16.378;2023-10-08T08:33:21;22.50;40.10
76168;DHT22;64927;48.214;16.378;2023-10-08T08:36:08;22.50;40.20
76168;DHT22;64927;48.214;16.378;2023-10-08T08:38:36;22.40;41.00
76168;DHT22;64927;48.214;16.378;2023-10-08T08:41:05;22.30;41.20
76168;DHT22;64927;48.214;16.378;2023-10-08T08:43:35;22.30;41.10
76168;DHT22;64927;48.214;16.378;2023-10-08T08:46:03;22.40;41.50
76168;DHT22;64927;48.214;16.378;2023-10-08T08:48:32;22.30;41.80
76168;DHT22;64927;48.214;16.378;2023-10-08T08:51:00;22.30;41.90
76168;DHT22;64927;48.214;16.378;2023-10-08T08:53:25;22.40;42.60
76168;DHT22;64927;48.214;16.378;2023-10-08T08:55:54;22.40;42.90
76168;DHT22;64927;48.214;16.378;2023-10-08T08:58:20;22.30;44.50
76168;DHT22;64927;48.214;16.378;2023-10-08T09:00:47;22.40;45.20
76168;DHT22;64927;48.214;16.378;2023-10-08T09:03:13;22.30;46.10
76168;DHT22;64927;48.214;16.378;2023-10-08T09:05:39;22.10;47.10
76168;DHT22;64927;48.214;16.378;2023-10-08T09:08:06;21.70;48.40
76168;DHT22;64927;48.214;16.378;2023-10-08T09:10:35;21.30;50.00
76168;DHT22;64927;48.214;16.378;2023-10-08T09:13:19;20.80;51.40
76168;DHT22;64927;48.214;16.378;2023-10-08T09:15:49;20.60;51.80
76168;DHT22;64927;48.214;16.378;2023-10-08T09:18:15;20.50;52.10
76168;DHT22;64927;48.214;16.378;2023-10-08T09:20:40;20.30;52.30
76168;DHT22;64927;48.214;16.378;2023-10-08T09:23:14;20.40;52.00
76168;DHT22;64927;48.214;16.378;2023-10-08T09:25:44;20.20;51.90
76168;DHT22;64927;48.214;16.378;2023-10-08T09:28:10;19.90;52.50
76168;DHT22;64927;48.214;16.378;2023-10-08T09:30:39;19.70;52.50
76168;DHT22;64927;48.214;16.378;2023-10-08T09:33:09;19.70;52.70
76168;DHT22;64927;48.214;16.378;2023-10-08T09:35:36;19.50;52.60
76168;DHT22;64927;48.214;16.378;2023-10-08T09:38:06;19.60;52.30
76168;DHT22;64927;48.214;16.378;2023-10-08T09:40:41;19.70;51.80
76168;DHT22;64927;48.214;16.378;2023-10-08T09:43:10;19.60;51.80
76168;DHT22;64927;48.214;16.378;2023-10-08T09:45:38;19.50;52.10
76168;DHT22;64927;48.214;16.378;2023-10-08T09:48:11;19.50;52.60
76168;DHT22;64927;48.214;16.378;2023-10-08T09:50:41;19.40;52.80
76168;DHT22;64927;48.214;16.378;2023-10-08T09:53:10;19.30;53.70
76168;DHT22;64927;48.214;16.378;2023-10-08T09:55:56;19.20;53.70
76168;DHT22;64927;48.214;16.378;2023-10-08T09:58:30;18.80;54.50
76168;DHT22;64927;48.214;16.378;2023-10-08T10:00:59;18.70;54.90
76168;DHT22;64927;48.214;16.378;2023-10-08T10:03:29;18.70;55.10
76168;DHT22;64927;48.214;16.378;2023-10-08T10:05:56;18.50;55.30
76168;DHT22;64927;48.214;16.378;2023-10-08T10:08:25;18.40;55.30
76168;DHT22;64927;48.214;16.378;2023-10-08T10:11:01;18.40;55.60
76168;DHT22;64927;48.214;16.378;2023-10-08T10:13:51;18.30;55.70
76168;DHT22;64927;48.214;16.378;2023-10-08T10:16:25;18.30;55.70
76168;DHT22;64927;48.214;16.378;2023-10-08T10:18:55;18.20;55.70
76168;DHT22;64927;48.214;16.378;2023-10-08T10:21:29;18.20;55.40
76168;DHT22;64927;48.214;16.378;2023-10-08T10:23:57;18.20;55.40
76168;DHT22;64927;48.214;16.378;2023-10-08T10:32:00;17.90;56.00
76168;DHT22;64927;48.214;16.378;2023-10-08T10:34:30;17.70;56.70
76168;DHT22;64927;48.214;16.378;2023-10-08T10:37:02;17.60;56.80
76168;DHT22;64927;48.214;16.378;2023-10-08T10:39:34;17.70;56.90
76168;DHT22;64927;48.214;16.378;2023-10-08T10:42:07;17.70;56.80
76168;DHT22;64927;48.214;16.378;2023-10-08T10:44:46;17.80;56.70
76168;DHT22;64927;48.214;16.378;2023-10-08T10:47:16;17.70;56.70
76168;DHT22;64927;48.214;16.378;2023-10-08T10:49:45;17.70;56.90
76168;DHT22;64927;48.214;16.378;2023-10-08T10:52:14;17.60;58.20
76168;DHT22;64927;48.214;16.378;2023-10-08T10:54:54;17.50;57.40
76168;DHT22;64927;48.214;16.378;2023-10-08T10:57:26;17.50;57.70
76168;DHT22;64927;48.214;16.378;2023-10-08T11:00:04;17.40;58.10
76168;DHT22;64927;48.214;16.378;2023-10-08T11:02:50;17.40;58.40
76168;DHT22;64927;48.214;16.378;2023-10-08T11:05:16;17.40;58.70
76168;DHT22;64927;48.214;16.378;2023-10-08T11:07:47;17.20;58.80
76168;DHT22;64927;48.214;16.378;2023-10-08T11:10:16;17.00;59.50
76168;DHT22;64927;48.214;16.378;2023-10-08T11:12:42;16.90;59.70
76168;DHT22;64927;48.214;16.378;2023-10-08T11:15:15;16.80;59.70
76168;DHT22;64927;48.214;16.378;2023-10-08T11:17:44;16.70;61.00
76168;DHT22;64927;48.214;16.378;2023-10-08T11:20:27;16.60;60.30
76168;DHT22;64927;48.214;16.378;2023-10-08T11:22:53;16.50;61.00
76168;DHT22;64927;48.214;16.378;2023-10-08T11:25:39;16.40;61.20
76168;DHT22;64927;48.214;16.378;2023-10-08T11:28:11;16.30;61.30
76168;DHT22;64927;48.214;16.378;2023-10-08T11:30:37;16.30;61.70
76168;DHT22;64927;48.214;16.378;2023-10-08T11:33:07;16.20;62.30
76168;DHT22;64927;48.214;16.378;2023-10-08T11:35:33;16.20;63.50
76168;DHT22;64927;48.214;16.378;2023-10-08T11:38:00;16.20;63.50
76168;DHT22;64927;48.214;16.378;2023-10-08T11:40:29;16.10;63.10
76168;DHT22;64927;48.214;16.378;2023-10-08T11:43:14;15.80;65.00
76168;DHT22;64927;48.214;16.378;2023-10-08T11:45:44;15.70;65.80
76168;DHT22;64927;48.214;16.378;2023-10-08T11:48:17;15.70;65.60
76168;DHT22;64927;48.214;16.378;2023-10-08T11:50:51;15.60;66.00
76168;DHT22;64927;48.214;16.378;2023-10-08T11:53:17;15.50;66.40
76168;DHT22;64927;48.214;16.378;2023-10-08T11:55:44;15.40;67.40
76168;DHT22;64927;48.214;16.378;2023-10-08T11:58:13;15.20;68.00
76168;DHT22;64927;48.214;16.378;2023-10-08T12:00:43;15.10;68.60
76168;DHT22;64927;48.214;16.378;2023-10-08T12:03:14;15.00;68.40
76168;DHT22;64927;48.214;16.378;2023-10-08T12:05:48;15.10;68.40
76168;DHT22;64927;48.214;16.378;2023-10-08T12:08:19;15.30;67.40
76168;DHT22;64927;48.214;16.378;2023-10-08T12:10:47;15.30;66.90
76168;DHT22;64927;48.214;16.378;2023-10-08T12:13:15;15.20;66.20
76168;DHT22;64927;48.214;16.378;2023-10-08T12:15:46;15.20;65.20
76168;DHT22;64927;48.214;16.378;2023-10-08T12:18:12;15.20;63.90
76168;DHT22;64927;48.214;16.378;2023-10-08T12:20:42;15.40;64.70
76168;DHT22;64927;48.214;16.378;2023-10-08T12:23:12;15.40;62.50
76168;DHT22;64927;48.214;16.378;2023-10-08T12:25:47;15.60;63.60
76168;DHT22;64927;48.214;16.378;2023-10-08T12:28:17;15.50;63.10
76168;DHT22;64927;48.214;16.378;2023-10-08T12:30:44;15.40;63.00
76168;DHT22;64927;48.214;16.378;2023-10-08T12:33:11;15.10;64.50
76168;DHT22;64927;48.214;16.378;2023-10-08T12:35:44;15.00;65.00
76168;DHT22;64927;48.214;16.378;2023-10-08T12:38:18;15.00;65.90
76168;DHT22;64927;48.214;16.378;2023-10-08T12:40:50;14.90;65.50
76168;DHT22;64927;48.214;16.378;2023-10-08T12:45:51;15.00;67.30
76168;DHT22;64927;48.214;16.378;2023-10-08T12:48:25;15.00;68.20
76168;DHT22;64927;48.214;16.378;2023-10-08T12:50:56;15.00;67.10
76168;DHT22;64927;48.214;16.378;2023-10-08T12:53:23;15.00;66.60
76168;DHT22;64927;48.214;16.378;2023-10-08T12:56:06;14.90;67.40
76168;DHT22;64927;48.214;16.378;2023-10-08T12:58:34;15.00;67.30
76168;DHT22;64927;48.214;16.378;2023-10-08T13:01:07;15.10;66.10
76168;DHT22;64927;48.214;16.378;2023-10-08T13:03:44;15.10;65.80
76168;DHT22;64927;48.214;16.378;2023-10-08T13:06:16;15.10;65.60
76168;DHT22;64927;48.214;16.378;2023-10-08T13:09:02;15.20;65.30
76168;DHT22;64927;48.214;16.378;2023-10-08T13:11:35;15.30;64.50
76168;DHT22;64927;48.214;16.378;2023-10-08T13:14:05;15.30;64.30
76168;DHT22;64927;48.214;16.378;2023-10-08T13:16:31;15.30;64.80
76168;DHT22;64927;48.214;16.378;2023-10-08T13:18:58;15.30;63.80
76168;DHT22;64927;48.214;16.378;2023-10-08T13:21:26;15.50;63.60
76168;DHT22;64927;48.214;16.378;2023-10-08T13:23:55;15.60;62.80
76168;DHT22;64927;48.214;16.378;2023-10-08T13:26:29;15.60;62.70
76168;DHT22;64927;48.214;16.378;2023-10-08T13:28:59;15.50;61.40
76168;DHT22;64927;48.214;16.378;2023-10-08T13:31:30;15.60;62.40
76168;DHT22;64927;48.214;16.378;2023-10-08T13:34:02;15.70;61.20
76168;DHT22;64927;48.214;16.378;2023-10-08T13:36:35;15.70;60.10
76168;DHT22;64927;48.214;16.378;2023-10-08T13:39:05;15.70;59.90
76168;DHT22;64927;48.214;16.378;2023-10-08T13:41:36;15.60;59.40
76168;DHT22;64927;48.214;16.378;2023-10-08T13:44:04;15.50;59.90
76168;DHT22;64927;48.214;16.378;2023-10-08T13:46:33;15.60;60.00
76168;DHT22;64927;48.214;16.378;2023-10-08T13:49:04;15.60;59.30
76168;DHT22;64927;48.214;16.378;2023-10-08T13:51:34;15.70;58.00
76168;DHT22;64927;48.214;16.378;2023-10-08T13:54:02;15.70;58.40
76168;DHT22;64927;48.214;16.378;2023-10-08T13:56:35;15.80;58.40
76168;DHT22;64927;48.214;16.378;2023-10-08T13:59:06;15.80;57.10
76168;DHT22;64927;48.214;16.378;2023-10-08T14:01:41;15.80;58.10
76168;DHT22;64927;48.214;16.378;2023-10-08T14:04:12;15.80;57.20
76168;DHT22;64927;48.214;16.378;2023-10-08T14:06:43;15.80;57.20
76168;DHT22;64927;48.214;16.378;2023-10-08T14:09:14;15.80;57.30
76168;DHT22;64927;48.214;16.378;2023-10-08T14:11:48;15.80;57.50
76168;DHT22;64927;48.214;16.378;2023-10-08T14:14:19;15.80;56.00
76168;DHT22;64927;48.214;16.378;2023-10-08T14:16:46;15.60;56.40
76168;DHT22;64927;48.214;16.378;2023-10-08T14:19:18;15.40;57.00
76168;DHT22;64927;48.214;16.378;2023-10-08T14:21:49;15.40;57.70
76168;DHT22;64927;48.214;16.378;2023-10-08T14:24:20;15.30;57.10
76168;DHT22;64927;48.214;16.378;2023-10-08T14:26:47;15.10;58.40
76168;DHT22;64927;48.214;16.378;2023-10-08T14:29:29;15.00;59.00
76168;DHT22;64927;48.214;16.378;2023-10-08T14:31:55;15.00;59.80
76168;DHT22;64927;48.214;16.378;2023-10-08T14:34:23;14.90;60.30
76168;DHT22;64927;48.214;16.378;2023-10-08T14:37:15;14.90;61.00
76168;DHT22;64927;48.214;16.378;2023-10-08T14:40:00;15.00;60.80
76168;DHT22;64927;48.214;16.378;2023-10-08T14:42:47;15.00;60.90
76168;DHT22;64927;48.214;16.378;2023-10-08T14:45:26;14.80;61.10
76168;DHT22;64927;48.214;16.378;2023-10-08T14:47:57;14.90;62.70
76168;DHT22;64927;48.214;16.378;2023-10-08T14:50:25;15.10;62.50
76168;DHT22;64927;48.214;16.378;2023-10-08T14:52:57;15.10;62.10
76168;DHT22;64927;48.214;16.378;2023-10-08T14:55:27;15.10;60.80
76168;DHT22;64927;48.214;16.378;2023-10-08T14:58:01;15.10;61.30
76168;DHT22;64927;48.214;16.378;2023-10-08T15:00:34;15.10;61.50
76168;DHT22;64927;48.214;16.378;2023-10-08T15:03:10;15.10;61.50
76168;DHT22;64927;48.214;16.378;2023-10-08T15:05:38;15.20;60.50
76168;DHT22;64927;48.214;16.378;2023-10-08T15:08:08;15.30;61.00
76168;DHT22;64927;48.214;16.378;2023-10-08T15:10:40;15.30;59.90
76168;DHT22;64927;48.214;16.378;2023-10-08T15:13:07;15.30;60.70
76168;DHT22;64927;48.214;16.378;2023-10-08T15:15:34;15.30;60.00
76168;DHT22;64927;48.214;16.378;2023-10-08T15:18:01;15.30;60.20
76168;DHT22;64927;48.214;16.378;2023-10-08T15:20:37;15.30;59.50
76168;DHT22;64927;48.214;16.378;2023-10-08T15:23:09;15.30;58.90
76168;DHT22;64927;48.214;16.378;2023-10-08T15:25:38;15.40;59.40
76168;DHT22;64927;48.214;16.378;2023-10-08T15:28:07;15.40;59.50
76168;DHT22;64927;48.214;16.378;2023-10-08T15:30:34;15.40;59.00
76168;DHT22;64927;48.214;16.378;2023-10-08T15:33:01;15.40;59.30
76168;DHT22;64927;48.214;16.378;2023-10-08T15:35:28;15.20;58.60
76168;DHT22;64927;48.214;16.378;2023-10-08T15:37:54;15.30;59.10
76168;DHT22;64927;48.214;16.378;2023-10-08T15:40:21;15.40;58.60
76168;DHT22;64927;48.214;16.378;2023-10-08T15:42:53;15.40;58.80
76168;DHT22;64927;48.214;16.378;2023-10-08T15:45:21;15.50;58.80
76168;DHT22;64927;48.214;16.378;2023-10-08T15:47:48;15.50;57.80
76168;DHT22;64927;48.214;16.378;2023-10-08T15:50:18;15.40;57.10
76168;DHT22;64927;48.214;16.378;2023-10-08T15:52:47;15.40;57.80